sensor_id;sensor_type;location;lat;lon;timestamp;P1;durP1;ratioP1;P2;durP2;ratioP2
53036;SDS011;38924;52.134;4.666;2022-11-15T00:00:37;109.40;;;55.22;;
53036;SDS011;38924;52.134;4.666;2022-11-15T00:03:25;121.90;;;58.58;;
53036;SDS011;38924;52.134;4.666;2022-11-15T00:06:09;123.38;;;61.83;;
53036;SDS011;38924;52.134;4.666;2022-11-15T00:08:54;114.13;;;59.90;;
53036;SDS011;38924;52.134;4.666;2022-11-15T00:11:38;114.90;;;59.72;;
53036;SDS011;38924;52.134;4.666;2022-11-15T00:14:22;131.10;;;62.35;;
53036;SDS011;38924;52.134;4.666;2022-11-15T00:17:06;128.95;;;62.22;;
53036;SDS011;38924;52.134;4.666;2022-11-15T00:19:51;131.00;;;63.42;;
53036;SDS011;38924;52.134;4.666;2022-11-15T00:22:36;130.32;;;60.70;;
53036;SDS011;38924;52.134;4.666;2022-11-15T00:25:20;133.52;;;64.15;;
53036;SDS011;38924;52.134;4.666;2022-11-15T00:28:04;132.93;;;63.33;;
53036;SDS011;38924;52.134;4.666;2022-11-15T00:30:49;133.48;;;64.57;;
53036;SDS011;38924;52.134;4.666;2022-11-15T00:33:36;131.73;;;60.88;;
53036;SDS011;38924;52.134;4.666;2022-11-15T00:36:20;112.85;;;60.50;;
53036;SDS011;38924;52.134;4.666;2022-11-15T00:39:05;126.03;;;63.38;;
53036;SDS011;38924;52.134;4.666;2022-11-15T00:41:52;146.68;;;65.38;;
53036;SDS011;38924;52.134;4.666;2022-11-15T00:44:36;164.23;;;63.58;;
53036;SDS011;38924;52.134;4.666;2022-11-15T00:47:20;127.33;;;59.83;;
53036;SDS011;38924;52.134;4.666;2022-11-15T00:50:05;156.13;;;61.65;;
53036;SDS011;38924;52.134;4.666;2022-11-15T00:52:49;148.10;;;62.92;;
53036;SDS011;38924;52.134;4.666;2022-11-15T00:55:33;142.43;;;63.28;;
53036;SDS011;38924;52.134;4.666;2022-11-15T00:58:17;180.05;;;65.15;;
53036;SDS011;38924;52.134;4.666;2022-11-15T01:01:09;155.90;;;67.55;;
53036;SDS011;38924;52.134;4.666;2022-11-15T01:03:54;186.50;;;64.70;;
53036;SDS011;38924;52.134;4.666;2022-11-15T01:06:38;160.38;;;61.08;;
53036;SDS011;38924;52.134;4.666;2022-11-15T01:09:22;147.88;;;63.55;;
53036;SDS011;38924;52.134;4.666;2022-11-15T01:12:06;163.57;;;67.65;;
53036;SDS011;38924;52.134;4.666;2022-11-15T01:14:51;157.20;;;65.93;;
53036;SDS011;38924;52.134;4.666;2022-11-15T01:17:35;160.10;;;65.88;;
53036;SDS011;38924;52.134;4.666;2022-11-15T01:20:19;227.38;;;70.88;;
53036;SDS011;38924;52.134;4.666;2022-11-15T01:23:03;200.77;;;71.28;;
53036;SDS011;38924;52.134;4.666;2022-11-15T01:25:48;209.50;;;69.68;;
53036;SDS011;38924;52.134;4.666;2022-11-15T01:28:33;167.50;;;70.60;;
53036;SDS011;38924;52.134;4.666;2022-11-15T01:31:18;182.07;;;66.18;;
53036;SDS011;38924;52.134;4.666;2022-11-15T01:34:03;247.18;;;78.30;;
53036;SDS011;38924;52.134;4.666;2022-11-15T01:36:47;143.57;;;67.70;;
53036;SDS011;38924;52.134;4.666;2022-11-15T01:39:31;173.30;;;70.72;;
53036;SDS011;38924;52.134;4.666;2022-11-15T01:42:15;181.73;;;70.20;;
53036;SDS011;38924;52.134;4.666;2022-11-15T01:45:00;182.55;;;71.18;;
53036;SDS011;38924;52.134;4.666;2022-11-15T01:47:45;172.53;;;72.33;;
53036;SDS011;38924;52.134;4.666;2022-11-15T01:50:32;167.48;;;69.07;;
53036;SDS011;38924;52.134;4.666;2022-11-15T01:53:19;193.95;;;76.40;;
53036;SDS011;38924;52.134;4.666;2022-11-15T01:56:06;165.35;;;71.35;;
53036;SDS011;38924;52.134;4.666;2022-11-15T01:58:52;162.77;;;70.82;;
53036;SDS011;38924;52.134;4.666;2022-11-15T02:01:37;193.23;;;70.85;;
53036;SDS011;38924;52.134;4.666;2022-11-15T02:04:29;156.15;;;70.55;;
53036;SDS011;38924;52.134;4.666;2022-11-15T02:07:15;169.15;;;70.13;;
53036;SDS011;38924;52.134;4.666;2022-11-15T02:10:09;196.20;;;74.63;;
53036;SDS011;38924;52.134;4.666;2022-11-15T02:12:53;209.70;;;77.95;;
53036;SDS011;38924;52.134;4.666;2022-11-15T02:15:40;163.77;;;72.13;;
53036;SDS011;38924;52.134;4.666;2022-11-15T02:18:31;191.38;;;75.70;;
53036;SDS011;38924;52.134;4.666;2022-11-15T02:29:53;190.57;;;76.75;;
53036;SDS011;38924;52.134;4.666;2022-11-15T02:33:00;203.30;;;77.80;;
53036;SDS011;38924;52.134;4.666;2022-11-15T02:38:37;208.27;;;81.80;;
53036;SDS011;38924;52.134;4.666;2022-11-15T02:41:40;207.95;;;80.57;;
53036;SDS011;38924;52.134;4.666;2022-11-15T02:44:35;236.98;;;87.28;;
53036;SDS011;38924;52.134;4.666;2022-11-15T02:47:21;174.25;;;76.60;;
53036;SDS011;38924;52.134;4.666;2022-11-15T02:50:07;211.30;;;79.90;;
53036;SDS011;38924;52.134;4.666;2022-11-15T02:52:52;210.45;;;86.95;;
53036;SDS011;38924;52.134;4.666;2022-11-15T02:55:37;222.07;;;83.57;;
53036;SDS011;38924;52.134;4.666;2022-11-15T03:04:20;193.65;;;84.15;;
53036;SDS011;38924;52.134;4.666;2022-11-15T03:07:24;189.43;;;79.28;;
53036;SDS011;38924;52.134;4.666;2022-11-15T03:13:19;224.55;;;87.50;;
53036;SDS011;38924;52.134;4.666;2022-11-15T03:16:09;189.95;;;81.22;;
53036;SDS011;38924;52.134;4.666;2022-11-15T03:19:44;173.20;;;79.68;;
53036;SDS011;38924;52.134;4.666;2022-11-15T03:21:59;164.05;;;74.43;;
53036;SDS011;38924;52.134;4.666;2022-11-15T03:24:45;174.25;;;76.55;;
53036;SDS011;38924;52.134;4.666;2022-11-15T03:27:31;175.93;;;82.38;;
53036;SDS011;38924;52.134;4.666;2022-11-15T03:30:17;194.25;;;82.90;;
53036;SDS011;38924;52.134;4.666;2022-11-15T03:33:02;143.75;;;76.60;;
53036;SDS011;38924;52.134;4.666;2022-11-15T03:35:47;176.52;;;78.70;;
53036;SDS011;38924;52.134;4.666;2022-11-15T03:38:35;193.70;;;78.97;;
53036;SDS011;38924;52.134;4.666;2022-11-15T03:41:23;185.10;;;81.15;;
53036;SDS011;38924;52.134;4.666;2022-11-15T03:44:26;136.32;;;74.15;;
53036;SDS011;38924;52.134;4.666;2022-11-15T03:49:59;133.55;;;67.22;;
53036;SDS011;38924;52.134;4.666;2022-11-15T03:52:45;144.82;;;70.63;;
53036;SDS011;38924;52.134;4.666;2022-11-15T03:55:31;150.77;;;76.53;;
53036;SDS011;38924;52.134;4.666;2022-11-15T03:58:15;129.23;;;71.55;;
53036;SDS011;38924;52.134;4.666;2022-11-15T04:00:59;145.18;;;75.82;;
53036;SDS011;38924;52.134;4.666;2022-11-15T04:03:44;136.80;;;73.38;;
53036;SDS011;38924;52.134;4.666;2022-11-15T04:06:28;142.85;;;75.05;;
53036;SDS011;38924;52.134;4.666;2022-11-15T04:09:12;154.00;;;74.65;;
53036;SDS011;38924;52.134;4.666;2022-11-15T04:11:57;158.20;;;77.13;;
53036;SDS011;38924;52.134;4.666;2022-11-15T04:14:41;139.00;;;73.18;;
53036;SDS011;38924;52.134;4.666;2022-11-15T04:17:46;132.75;;;71.25;;
53036;SDS011;38924;52.134;4.666;2022-11-15T04:20:31;126.63;;;70.95;;
53036;SDS011;38924;52.134;4.666;2022-11-15T04:23:42;111.35;;;67.28;;
53036;SDS011;38924;52.134;4.666;2022-11-15T04:26:45;123.57;;;66.63;;
53036;SDS011;38924;52.134;4.666;2022-11-15T04:29:29;96.10;;;64.37;;
53036;SDS011;38924;52.134;4.666;2022-11-15T04:32:19;97.28;;;63.92;;
53036;SDS011;38924;52.134;4.666;2022-11-15T04:35:04;97.30;;;64.10;;
53036;SDS011;38924;52.134;4.666;2022-11-15T04:37:48;96.38;;;61.22;;
53036;SDS011;38924;52.134;4.666;2022-11-15T04:40:36;97.72;;;61.22;;
53036;SDS011;38924;52.134;4.666;2022-11-15T04:43:20;80.57;;;60.08;;
53036;SDS011;38924;52.134;4.666;2022-11-15T04:46:05;82.25;;;58.25;;
53036;SDS011;38924;52.134;4.666;2022-11-15T04:48:49;82.65;;;54.67;;
53036;SDS011;38924;52.134;4.666;2022-11-15T04:51:34;86.78;;;56.47;;
53036;SDS011;38924;52.134;4.666;2022-11-15T04:54:18;83.00;;;56.53;;
53036;SDS011;38924;52.134;4.666;2022-11-15T04:57:02;78.10;;;60.13;;
53036;SDS011;38924;52.134;4.666;2022-11-15T04:59:47;75.13;;;55.65;;
53036;SDS011;38924;52.134;4.666;2022-11-15T05:02:31;84.37;;;55.73;;
53036;SDS011;38924;52.134;4.666;2022-11-15T05:05:35;77.97;;;54.33;;
53036;SDS011;38924;52.134;4.666;2022-11-15T05:08:19;78.03;;;55.50;;
53036;SDS011;38924;52.134;4.666;2022-11-15T05:11:04;79.65;;;51.65;;
53036;SDS011;38924;52.134;4.666;2022-11-15T05:13:48;71.95;;;49.85;;
53036;SDS011;38924;52.134;4.666;2022-11-15T05:16:32;70.32;;;50.60;;
53036;SDS011;38924;52.134;4.666;2022-11-15T05:19:17;63.90;;;49.83;;
53036;SDS011;38924;52.134;4.666;2022-11-15T05:22:01;62.83;;;47.60;;
53036;SDS011;38924;52.134;4.666;2022-11-15T05:24:45;61.88;;;46.22;;
53036;SDS011;38924;52.134;4.666;2022-11-15T05:27:29;56.33;;;46.53;;
53036;SDS011;38924;52.134;4.666;2022-11-15T05:30:14;60.22;;;47.95;;
53036;SDS011;38924;52.134;4.666;2022-11-15T05:32:58;69.03;;;52.10;;
53036;SDS011;38924;52.134;4.666;2022-11-15T05:35:45;63.67;;;47.67;;
53036;SDS011;38924;52.134;4.666;2022-11-15T05:38:30;59.13;;;45.28;;
53036;SDS011;38924;52.134;4.666;2022-11-15T05:41:14;57.70;;;42.22;;
53036;SDS011;38924;52.134;4.666;2022-11-15T05:43:59;55.78;;;42.83;;
53036;SDS011;38924;52.134;4.666;2022-11-15T05:46:45;46.90;;;39.10;;
53036;SDS011;38924;52.134;4.666;2022-11-15T05:49:30;46.88;;;40.13;;
53036;SDS011;38924;52.134;4.666;2022-11-15T05:52:19;50.85;;;39.67;;
53036;SDS011;38924;52.134;4.666;2022-11-15T05:55:04;45.15;;;40.25;;
53036;SDS011;38924;52.134;4.666;2022-11-15T05:57:49;45.33;;;39.97;;
53036;SDS011;38924;52.134;4.666;2022-11-15T06:00:34;43.10;;;37.10;;
53036;SDS011;38924;52.134;4.666;2022-11-15T06:03:18;41.00;;;36.58;;
53036;SDS011;38924;52.134;4.666;2022-11-15T06:06:02;40.17;;;35.78;;
53036;SDS011;38924;52.134;4.666;2022-11-15T06:08:46;44.88;;;35.15;;
53036;SDS011;38924;52.134;4.666;2022-11-15T06:11:31;44.85;;;34.83;;
53036;SDS011;38924;52.134;4.666;2022-11-15T06:14:19;39.90;;;33.17;;
53036;SDS011;38924;52.134;4.666;2022-11-15T06:17:03;38.88;;;31.63;;
53036;SDS011;38924;52.134;4.666;2022-11-15T06:19:47;35.72;;;29.15;;
53036;SDS011;38924;52.134;4.666;2022-11-15T06:22:32;34.78;;;31.15;;
53036;SDS011;38924;52.134;4.666;2022-11-15T06:25:16;38.45;;;29.17;;
53036;SDS011;38924;52.134;4.666;2022-11-15T06:28:00;39.03;;;28.70;;
53036;SDS011;38924;52.134;4.666;2022-11-15T06:30:45;38.45;;;28.88;;
53036;SDS011;38924;52.134;4.666;2022-11-15T06:33:29;36.55;;;27.48;;
53036;SDS011;38924;52.134;4.666;2022-11-15T06:36:13;31.80;;;26.65;;
53036;SDS011;38924;52.134;4.666;2022-11-15T06:39:00;31.17;;;25.15;;
53036;SDS011;38924;52.134;4.666;2022-11-15T06:41:44;30.60;;;26.83;;
53036;SDS011;38924;52.134;4.666;2022-11-15T06:44:28;28.55;;;23.90;;
53036;SDS011;38924;52.134;4.666;2022-11-15T06:47:13;30.50;;;26.67;;
53036;SDS011;38924;52.134;4.666;2022-11-15T06:49:57;36.85;;;27.30;;
53036;SDS011;38924;52.134;4.666;2022-11-15T06:52:44;30.67;;;25.08;;
53036;SDS011;38924;52.134;4.666;2022-11-15T06:55:29;33.38;;;25.85;;
53036;SDS011;38924;52.134;4.666;2022-11-15T06:58:13;31.90;;;25.52;;
53036;SDS011;38924;52.134;4.666;2022-11-15T07:00:58;28.25;;;24.05;;
53036;SDS011;38924;52.134;4.666;2022-11-15T07:03:42;31.15;;;20.70;;
53036;SDS011;38924;52.134;4.666;2022-11-15T07:06:26;29.25;;;24.30;;
53036;SDS011;38924;52.134;4.666;2022-11-15T07:09:11;29.60;;;22.95;;
53036;SDS011;38924;52.134;4.666;2022-11-15T07:11:55;24.75;;;22.25;;
53036;SDS011;38924;52.134;4.666;2022-11-15T07:14:39;30.50;;;22.05;;
53036;SDS011;38924;52.134;4.666;2022-11-15T07:17:24;27.38;;;24.33;;
53036;SDS011;38924;52.134;4.666;2022-11-15T07:20:08;24.98;;;22.45;;
53036;SDS011;38924;52.134;4.666;2022-11-15T07:23:03;28.02;;;23.92;;
53036;SDS011;38924;52.134;4.666;2022-11-15T07:25:57;26.35;;;23.52;;
53036;SDS011;38924;52.134;4.666;2022-11-15T07:28:45;29.20;;;23.98;;
53036;SDS011;38924;52.134;4.666;2022-11-15T07:31:32;29.23;;;24.30;;
53036;SDS011;38924;52.134;4.666;2022-11-15T07:34:19;31.25;;;24.75;;
53036;SDS011;38924;52.134;4.666;2022-11-15T07:37:10;31.08;;;24.13;;
53036;SDS011;38924;52.134;4.666;2022-11-15T07:39:57;31.20;;;26.52;;
53036;SDS011;38924;52.134;4.666;2022-11-15T07:42:41;28.35;;;25.23;;
53036;SDS011;38924;52.134;4.666;2022-11-15T07:45:41;31.77;;;24.67;;
53036;SDS011;38924;52.134;4.666;2022-11-15T07:48:40;27.50;;;24.67;;
53036;SDS011;38924;52.134;4.666;2022-11-15T07:51:26;30.75;;;23.58;;
53036;SDS011;38924;52.134;4.666;2022-11-15T07:54:11;29.15;;;22.70;;
53036;SDS011;38924;52.134;4.666;2022-11-15T07:56:57;27.67;;;24.80;;
53036;SDS011;38924;52.134;4.666;2022-11-15T07:59:42;27.15;;;21.17;;
53036;SDS011;38924;52.134;4.666;2022-11-15T08:02:26;27.08;;;24.27;;
53036;SDS011;38924;52.134;4.666;2022-11-15T08:05:17;30.15;;;25.00;;
53036;SDS011;38924;52.134;4.666;2022-11-15T08:08:01;26.90;;;23.02;;
53036;SDS011;38924;52.134;4.666;2022-11-15T08:10:45;28.38;;;25.33;;
53036;SDS011;38924;52.134;4.666;2022-11-15T08:13:30;26.60;;;23.70;;
53036;SDS011;38924;52.134;4.666;2022-11-15T08:16:14;33.80;;;24.85;;
53036;SDS011;38924;52.134;4.666;2022-11-15T08:18:58;22.42;;;20.02;;
53036;SDS011;38924;52.134;4.666;2022-11-15T08:21:42;29.30;;;25.52;;
53036;SDS011;38924;52.134;4.666;2022-11-15T08:24:27;40.55;;;27.83;;
53036;SDS011;38924;52.134;4.666;2022-11-15T08:27:11;31.33;;;25.48;;
53036;SDS011;38924;52.134;4.666;2022-11-15T08:29:58;26.90;;;24.27;;
53036;SDS011;38924;52.134;4.666;2022-11-15T08:32:43;29.08;;;26.02;;
53036;SDS011;38924;52.134;4.666;2022-11-15T08:35:27;24.85;;;22.67;;
53036;SDS011;38924;52.134;4.666;2022-11-15T08:38:15;25.98;;;23.15;;
53036;SDS011;38924;52.134;4.666;2022-11-15T08:41:00;28.48;;;23.45;;
53036;SDS011;38924;52.134;4.666;2022-11-15T08:43:45;25.63;;;22.25;;
53036;SDS011;38924;52.134;4.666;2022-11-15T08:46:29;25.58;;;22.73;;
53036;SDS011;38924;52.134;4.666;2022-11-15T08:49:17;24.92;;;20.00;;
53036;SDS011;38924;52.134;4.666;2022-11-15T08:52:01;23.15;;;20.70;;
53036;SDS011;38924;52.134;4.666;2022-11-15T08:54:45;31.33;;;23.92;;
53036;SDS011;38924;52.134;4.666;2022-11-15T08:57:29;24.60;;;22.17;;
53036;SDS011;38924;52.134;4.666;2022-11-15T09:00:14;26.20;;;20.10;;
53036;SDS011;38924;52.134;4.666;2022-11-15T09:02:58;24.15;;;21.73;;
53036;SDS011;38924;52.134;4.666;2022-11-15T09:05:43;24.33;;;21.83;;
53036;SDS011;38924;52.134;4.666;2022-11-15T09:08:30;21.67;;;19.45;;
53036;SDS011;38924;52.134;4.666;2022-11-15T09:11:15;22.38;;;20.30;;
53036;SDS011;38924;52.134;4.666;2022-11-15T09:14:01;23.05;;;20.65;;
53036;SDS011;38924;52.134;4.666;2022-11-15T09:16:45;23.25;;;20.20;;
53036;SDS011;38924;52.134;4.666;2022-11-15T09:19:29;20.23;;;18.50;;
53036;SDS011;38924;52.134;4.666;2022-11-15T09:22:13;20.30;;;18.27;;
53036;SDS011;38924;52.134;4.666;2022-11-15T09:24:57;19.77;;;17.83;;
53036;SDS011;38924;52.134;4.666;2022-11-15T09:27:41;21.13;;;17.95;;
53036;SDS011;38924;52.134;4.666;2022-11-15T09:30:29;18.23;;;16.27;;
53036;SDS011;38924;52.134;4.666;2022-11-15T09:33:13;18.75;;;17.20;;
53036;SDS011;38924;52.134;4.666;2022-11-15T09:36:01;20.95;;;19.13;;
53036;SDS011;38924;52.134;4.666;2022-11-15T09:38:46;18.90;;;17.23;;
53036;SDS011;38924;52.134;4.666;2022-11-15T09:44:42;16.48;;;15.02;;
53036;SDS011;38924;52.134;4.666;2022-11-15T09:50:20;18.33;;;15.32;;
53036;SDS011;38924;52.134;4.666;2022-11-15T09:52:52;18.30;;;15.48;;
53036;SDS011;38924;52.134;4.666;2022-11-15T09:55:18;18.55;;;16.75;;
53036;SDS011;38924;52.134;4.666;2022-11-15T09:57:52;19.27;;;17.38;;
53036;SDS011;38924;52.134;4.666;2022-11-15T10:00:24;18.25;;;16.02;;
53036;SDS011;38924;52.134;4.666;2022-11-15T10:03:16;15.80;;;14.02;;
53036;SDS011;38924;52.134;4.666;2022-11-15T10:05:49;17.35;;;15.73;;
53036;SDS011;38924;52.134;4.666;2022-11-15T10:11:00;18.50;;;15.18;;
53036;SDS011;38924;52.134;4.666;2022-11-15T10:13:28;15.45;;;14.20;;
53036;SDS011;38924;52.134;4.666;2022-11-15T10:16:04;18.35;;;14.40;;
53036;SDS011;38924;52.134;4.666;2022-11-15T10:21:17;16.85;;;14.80;;
53036;SDS011;38924;52.134;4.666;2022-11-15T10:23:43;19.58;;;15.27;;
53036;SDS011;38924;52.134;4.666;2022-11-15T10:26:10;19.27;;;12.70;;
53036;SDS011;38924;52.134;4.666;2022-11-15T10:28:37;15.70;;;13.98;;
53036;SDS011;38924;52.134;4.666;2022-11-15T10:31:10;17.83;;;13.05;;
53036;SDS011;38924;52.134;4.666;2022-11-15T10:33:45;18.15;;;15.25;;
53036;SDS011;38924;52.134;4.666;2022-11-15T10:41:36;16.40;;;13.00;;
53036;SDS011;38924;52.134;4.666;2022-11-15T10:46:33;16.25;;;13.45;;
53036;SDS011;38924;52.134;4.666;2022-11-15T10:49:11;14.80;;;12.85;;
53036;SDS011;38924;52.134;4.666;2022-11-15T10:51:40;15.20;;;12.35;;
53036;SDS011;38924;52.134;4.666;2022-11-15T10:54:07;15.82;;;12.50;;
53036;SDS011;38924;52.134;4.666;2022-11-15T10:56:35;12.85;;;11.73;;
53036;SDS011;38924;52.134;4.666;2022-11-15T10:59:01;14.18;;;12.77;;
53036;SDS011;38924;52.134;4.666;2022-11-15T11:01:27;14.63;;;13.18;;
53036;SDS011;38924;52.134;4.666;2022-11-15T11:06:26;16.85;;;14.60;;
53036;SDS011;38924;52.134;4.666;2022-11-15T11:08:56;14.07;;;12.63;;
53036;SDS011;38924;52.134;4.666;2022-11-15T11:11:22;15.65;;;12.70;;
53036;SDS011;38924;52.134;4.666;2022-11-15T11:13:48;14.38;;;12.65;;
53036;SDS011;38924;52.134;4.666;2022-11-15T11:18:43;18.33;;;13.80;;
53036;SDS011;38924;52.134;4.666;2022-11-15T11:21:24;16.45;;;12.73;;
53036;SDS011;38924;52.134;4.666;2022-11-15T11:23:53;16.00;;;13.13;;
53036;SDS011;38924;52.134;4.666;2022-11-15T11:28:59;13.13;;;11.82;;
53036;SDS011;38924;52.134;4.666;2022-11-15T11:31:33;18.35;;;13.77;;
53036;SDS011;38924;52.134;4.666;2022-11-15T11:34:04;18.07;;;12.70;;
53036;SDS011;38924;52.134;4.666;2022-11-15T11:39:25;18.17;;;14.07;;
53036;SDS011;38924;52.134;4.666;2022-11-15T11:42:08;14.65;;;13.13;;
53036;SDS011;38924;52.134;4.666;2022-11-15T11:47:11;16.80;;;12.32;;
53036;SDS011;38924;52.134;4.666;2022-11-15T11:52:17;22.42;;;10.85;;
53036;SDS011;38924;52.134;4.666;2022-11-15T11:54:48;13.32;;;11.98;;
53036;SDS011;38924;52.134;4.666;2022-11-15T11:59:58;12.05;;;10.75;;
53036;SDS011;38924;52.134;4.666;2022-11-15T12:04:57;18.35;;;12.93;;
53036;SDS011;38924;52.134;4.666;2022-11-15T12:07:24;17.90;;;12.40;;
53036;SDS011;38924;52.134;4.666;2022-11-15T12:09:53;10.63;;;9.55;;
53036;SDS011;38924;52.134;4.666;2022-11-15T12:12:27;13.63;;;12.35;;
53036;SDS011;38924;52.134;4.666;2022-11-15T12:17:23;14.23;;;10.25;;
53036;SDS011;38924;52.134;4.666;2022-11-15T12:19:49;15.68;;;10.20;;
53036;SDS011;38924;52.134;4.666;2022-11-15T12:22:19;12.30;;;9.48;;
53036;SDS011;38924;52.134;4.666;2022-11-15T12:29:41;19.40;;;10.02;;
53036;SDS011;38924;52.134;4.666;2022-11-15T12:32:16;11.43;;;10.30;;
53036;SDS011;38924;52.134;4.666;2022-11-15T12:38:11;15.40;;;9.68;;
53036;SDS011;38924;52.134;4.666;2022-11-15T12:43:02;11.93;;;9.68;;
53036;SDS011;38924;52.134;4.666;2022-11-15T12:45:33;11.60;;;10.43;;
53036;SDS011;38924;52.134;4.666;2022-11-15T13:07:05;13.40;;;9.90;;
53036;SDS011;38924;52.134;4.666;2022-11-15T13:12:07;11.02;;;10.05;;
53036;SDS011;38924;52.134;4.666;2022-11-15T13:17:02;16.85;;;9.18;;
53036;SDS011;38924;52.134;4.666;2022-11-15T13:19:28;12.30;;;11.02;;
53036;SDS011;38924;52.134;4.666;2022-11-15T13:21:54;13.73;;;9.27;;
53036;SDS011;38924;52.134;4.666;2022-11-15T13:24:38;10.40;;;9.23;;
53036;SDS011;38924;52.134;4.666;2022-11-15T13:27:13;11.60;;;9.77;;
53036;SDS011;38924;52.134;4.666;2022-11-15T13:29:43;12.00;;;10.88;;
53036;SDS011;38924;52.134;4.666;2022-11-15T13:32:12;11.32;;;7.72;;
53036;SDS011;38924;52.134;4.666;2022-11-15T13:34:38;13.68;;;9.50;;
53036;SDS011;38924;52.134;4.666;2022-11-15T13:37:15;12.75;;;9.65;;
53036;SDS011;38924;52.134;4.666;2022-11-15T13:39:53;10.25;;;9.00;;
53036;SDS011;38924;52.134;4.666;2022-11-15T13:42:19;9.23;;;7.97;;
53036;SDS011;38924;52.134;4.666;2022-11-15T13:44:58;13.65;;;8.48;;
53036;SDS011;38924;52.134;4.666;2022-11-15T13:47:25;16.38;;;10.20;;
53036;SDS011;38924;52.134;4.666;2022-11-15T13:49:52;17.13;;;10.95;;
53036;SDS011;38924;52.134;4.666;2022-11-15T13:52:18;12.02;;;9.32;;
53036;SDS011;38924;52.134;4.666;2022-11-15T13:57:14;16.25;;;12.63;;
53036;SDS011;38924;52.134;4.666;2022-11-15T14:00:30;7.80;;;7.00;;
53036;SDS011;38924;52.134;4.666;2022-11-15T14:02:37;13.75;;;9.30;;
53036;SDS011;38924;52.134;4.666;2022-11-15T14:07:37;9.30;;;8.00;;
53036;SDS011;38924;52.134;4.666;2022-11-15T14:12:51;14.70;;;11.10;;
53036;SDS011;38924;52.134;4.666;2022-11-15T14:15:23;12.75;;;9.80;;
53036;SDS011;38924;52.134;4.666;2022-11-15T14:17:50;18.73;;;8.63;;
53036;SDS011;38924;52.134;4.666;2022-11-15T14:20:35;17.05;;;9.60;;
53036;SDS011;38924;52.134;4.666;2022-11-15T14:23:02;9.68;;;8.27;;
53036;SDS011;38924;52.134;4.666;2022-11-15T14:25:29;10.23;;;9.20;;
53036;SDS011;38924;52.134;4.666;2022-11-15T14:30:40;11.55;;;10.38;;
53036;SDS011;38924;52.134;4.666;2022-11-15T14:33:40;9.65;;;8.50;;
53036;SDS011;38924;52.134;4.666;2022-11-15T14:36:20;9.95;;;9.00;;
53036;SDS011;38924;52.134;4.666;2022-11-15T14:38:45;9.52;;;7.80;;
53036;SDS011;38924;52.134;4.666;2022-11-15T14:41:21;15.20;;;8.00;;
53036;SDS011;38924;52.134;4.666;2022-11-15T14:43:48;11.38;;;10.07;;
53036;SDS011;38924;52.134;4.666;2022-11-15T14:46:14;8.52;;;7.78;;
53036;SDS011;38924;52.134;4.666;2022-11-15T14:48:39;11.00;;;9.52;;
53036;SDS011;38924;52.134;4.666;2022-11-15T14:51:11;14.45;;;8.23;;
53036;SDS011;38924;52.134;4.666;2022-11-15T14:53:37;15.90;;;8.23;;
53036;SDS011;38924;52.134;4.666;2022-11-15T14:56:03;9.18;;;8.27;;
53036;SDS011;38924;52.134;4.666;2022-11-15T14:58:29;11.80;;;10.48;;
53036;SDS011;38924;52.134;4.666;2022-11-15T15:00:55;9.93;;;7.90;;
53036;SDS011;38924;52.134;4.666;2022-11-15T15:03:20;10.98;;;8.68;;
53036;SDS011;38924;52.134;4.666;2022-11-15T15:05:47;11.60;;;10.45;;
53036;SDS011;38924;52.134;4.666;2022-11-15T15:08:13;15.55;;;9.57;;
53036;SDS011;38924;52.134;4.666;2022-11-15T15:10:41;11.00;;;9.35;;
53036;SDS011;38924;52.134;4.666;2022-11-15T15:13:15;14.23;;;8.73;;
53036;SDS011;38924;52.134;4.666;2022-11-15T15:18:07;13.93;;;8.23;;
53036;SDS011;38924;52.134;4.666;2022-11-15T15:20:37;9.00;;;7.90;;
53036;SDS011;38924;52.134;4.666;2022-11-15T15:23:04;16.20;;;9.85;;
53036;SDS011;38924;52.134;4.666;2022-11-15T15:25:31;10.40;;;9.60;;
53036;SDS011;38924;52.134;4.666;2022-11-15T15:28:00;8.32;;;7.53;;
53036;SDS011;38924;52.134;4.666;2022-11-15T15:30:29;10.23;;;8.13;;
53036;SDS011;38924;52.134;4.666;2022-11-15T15:32:55;9.00;;;8.23;;
53036;SDS011;38924;52.134;4.666;2022-11-15T15:35:21;9.18;;;8.18;;
53036;SDS011;38924;52.134;4.666;2022-11-15T15:37:47;8.63;;;7.72;;
53036;SDS011;38924;52.134;4.666;2022-11-15T15:40:14;10.13;;;8.50;;
53036;SDS011;38924;52.134;4.666;2022-11-15T15:42:41;12.73;;;8.57;;
53036;SDS011;38924;52.134;4.666;2022-11-15T15:45:07;9.20;;;8.40;;
53036;SDS011;38924;52.134;4.666;2022-11-15T15:47:33;9.00;;;7.95;;
53036;SDS011;38924;52.134;4.666;2022-11-15T15:49:59;14.75;;;9.40;;
53036;SDS011;38924;52.134;4.666;2022-11-15T15:52:24;13.88;;;8.57;;
53036;SDS011;38924;52.134;4.666;2022-11-15T15:54:50;9.30;;;8.45;;
53036;SDS011;38924;52.134;4.666;2022-11-15T15:57:19;9.63;;;8.77;;
53036;SDS011;38924;52.134;4.666;2022-11-15T15:59:44;11.18;;;8.52;;
53036;SDS011;38924;52.134;4.666;2022-11-15T16:02:13;13.57;;;8.27;;
53036;SDS011;38924;52.134;4.666;2022-11-15T16:04:39;8.85;;;7.95;;
53036;SDS011;38924;52.134;4.666;2022-11-15T16:07:05;9.82;;;8.98;;
53036;SDS011;38924;52.134;4.666;2022-11-15T16:09:30;10.10;;;9.27;;
53036;SDS011;38924;52.134;4.666;2022-11-15T16:12:14;10.43;;;9.30;;
53036;SDS011;38924;52.134;4.666;2022-11-15T16:14:42;11.32;;;10.25;;
53036;SDS011;38924;52.134;4.666;2022-11-15T16:17:10;14.13;;;11.93;;
53036;SDS011;38924;52.134;4.666;2022-11-15T16:19:40;14.45;;;13.02;;
53036;SDS011;38924;52.134;4.666;2022-11-15T16:22:06;16.33;;;14.75;;
53036;SDS011;38924;52.134;4.666;2022-11-15T16:24:32;14.48;;;13.25;;
53036;SDS011;38924;52.134;4.666;2022-11-15T16:26:57;15.82;;;14.50;;
53036;SDS011;38924;52.134;4.666;2022-11-15T16:29:23;16.05;;;12.85;;
53036;SDS011;38924;52.134;4.666;2022-11-15T16:31:49;17.48;;;15.98;;
53036;SDS011;38924;52.134;4.666;2022-11-15T16:34:14;16.92;;;15.43;;
53036;SDS011;38924;52.134;4.666;2022-11-15T16:36:40;17.15;;;15.50;;
53036;SDS011;38924;52.134;4.666;2022-11-15T16:39:06;18.50;;;16.55;;
53036;SDS011;38924;52.134;4.666;2022-11-15T16:41:32;20.10;;;15.93;;
53036;SDS011;38924;52.134;4.666;2022-11-15T16:43:57;19.33;;;17.75;;
53036;SDS011;38924;52.134;4.666;2022-11-15T16:46:24;19.92;;;17.38;;
53036;SDS011;38924;52.134;4.666;2022-11-15T16:48:50;22.35;;;20.27;;
53036;SDS011;38924;52.134;4.666;2022-11-15T16:51:18;18.20;;;16.67;;
53036;SDS011;38924;52.134;4.666;2022-11-15T16:53:44;19.27;;;17.33;;
53036;SDS011;38924;52.134;4.666;2022-11-15T16:56:29;18.85;;;17.15;;
53036;SDS011;38924;52.134;4.666;2022-11-15T16:58:55;16.77;;;15.15;;
53036;SDS011;38924;52.134;4.666;2022-11-15T17:01:26;20.80;;;19.08;;
53036;SDS011;38924;52.134;4.666;2022-11-15T17:03:52;20.33;;;18.60;;
53036;SDS011;38924;52.134;4.666;2022-11-15T17:06:18;22.10;;;18.65;;
53036;SDS011;38924;52.134;4.666;2022-11-15T17:08:44;20.25;;;18.70;;
53036;SDS011;38924;52.134;4.666;2022-11-15T17:11:12;18.63;;;16.90;;
53036;SDS011;38924;52.134;4.666;2022-11-15T17:13:39;23.52;;;21.10;;
53036;SDS011;38924;52.134;4.666;2022-11-15T17:16:05;19.73;;;17.88;;
53036;SDS011;38924;52.134;4.666;2022-11-15T17:18:31;18.55;;;16.77;;
53036;SDS011;38924;52.134;4.666;2022-11-15T17:20:57;17.92;;;16.58;;
53036;SDS011;38924;52.134;4.666;2022-11-15T17:23:22;20.13;;;18.27;;